sensor_id;sensor_type;location;lat;lon;timestamp;temperature;humidity
12130;DHT22;6128;59.340;18.040;2022-12-01T00:00:58;3.90;99.90
12130;DHT22;6128;59.340;18.040;2022-12-01T00:03:28;3.90;99.90
12130;DHT22;6128;59.340;18.040;2022-12-01T00:05:58;4.00;99.90
12130;DHT22;6128;59.340;18.040;2022-12-01T00:08:26;4.00;99.90
12130;DHT22;6128;59.340;18.040;2022-12-01T00:10:54;4.00;99.90
12130;DHT22;6128;59.340;18.040;2022-12-01T00:13:20;4.00;99.90
12130;DHT22;6128;59.340;18.040;2022-12-01T00:15:49;4.00;99.90
12130;DHT22;6128;59.340;18.040;2022-12-01T00:18:17;4.00;99.90
12130;DHT22;6128;59.340;18.040;2022-12-01T00:20:44;4.00;99.90
12130;DHT22;6128;59.340;18.040;2022-12-01T00:23:13;3.90;99.90
12130;DHT22;6128;59.340;18.040;2022-12-01T00:25:40;3.90;99.90
12130;DHT22;6128;59.340;18.040;2022-12-01T00:28:08;3.90;99.90
12130;DHT22;6128;59.340;18.040;2022-12-01T00:30:35;3.90;99.90
12130;DHT22;6128;59.340;18.040;2022-12-01T00:33:04;3.90;99.90
12130;DHT22;6128;59.340;18.040;2022-12-01T00:35:31;3.90;99.90
12130;DHT22;6128;59.340;18.040;2022-12-01T00:37:58;3.90;99.90
12130;DHT22;6128;59.340;18.040;2022-12-01T00:40:25;3.90;99.90
12130;DHT22;6128;59.340;18.040;2022-12-01T00:42:53;3.90;99.90
12130;DHT22;6128;59.340;18.040;2022-12-01T00:45:23;3.80;99.90
12130;DHT22;6128;59.340;18.040;2022-12-01T00:48:00;3.80;99.90
12130;DHT22;6128;59.340;18.040;2022-12-01T00:50:34;3.70;99.90
12130;DHT22;6128;59.340;18.040;2022-12-01T00:53:01;3.70;99.90
12130;DHT22;6128;59.340;18.040;2022-12-01T00:55:28;3.60;99.90
12130;DHT22;6128;59.340;18.040;2022-12-01T00:57:55;3.60;99.90
12130;DHT22;6128;59.340;18.040;2022-12-01T01:00:23;3.70;99.90
12130;DHT22;6128;59.340;18.040;2022-12-01T01:02:50;3.70;99.90
12130;DHT22;6128;59.340;18.040;2022-12-01T01:05:17;3.70;99.90
12130;DHT22;6128;59.340;18.040;2022-12-01T01:07:46;3.80;99.90
12130;DHT22;6128;59.340;18.040;2022-12-01T01:10:13;3.80;99.90
12130;DHT22;6128;59.340;18.040;2022-12-01T01:12:40;3.80;99.90
12130;DHT22;6128;59.340;18.040;2022-12-01T01:15:08;3.80;99.90
12130;DHT22;6128;59.340;18.040;2022-12-01T01:17:35;3.80;99.90
12130;DHT22;6128;59.340;18.040;2022-12-01T01:20:04;3.80;99.90
12130;DHT22;6128;59.340;18.040;2022-12-01T01:22:34;3.90;99.90
12130;DHT22;6128;59.340;18.040;2022-12-01T01:25:02;3.90;99.90
12130;DHT22;6128;59.340;18.040;2022-12-01T01:27:30;3.90;99.90
12130;DHT22;6128;59.340;18.040;2022-12-01T01:29:57;3.90;99.90
12130;DHT22;6128;59.340;18.040;2022-12-01T01:32:24;3.90;99.90
12130;DHT22;6128;59.340;18.040;2022-12-01T01:34:51;3.90;99.90
12130;DHT22;6128;59.340;18.040;2022-12-01T01:37:20;3.90;99.90
12130;DHT22;6128;59.340;18.040;2022-12-01T01:39:48;3.90;99.90
12130;DHT22;6128;59.340;18.040;2022-12-01T01:42:18;3.90;99.90
12130;DHT22;6128;59.340;18.040;2022-12-01T01:44:48;3.90;99.90
12130;DHT22;6128;59.340;18.040;2022-12-01T01:47:19;4.00;99.90
12130;DHT22;6128;59.340;18.040;2022-12-01T01:49:47;4.00;99.90
12130;DHT22;6128;59.340;18.040;2022-12-01T01:52:14;4.00;99.90
12130;DHT22;6128;59.340;18.040;2022-12-01T01:54:46;4.10;99.90
12130;DHT22;6128;59.340;18.040;2022-12-01T01:57:19;4.00;99.90
12130;DHT22;6128;59.340;18.040;2022-12-01T01:59:51;4.10;99.90
12130;DHT22;6128;59.340;18.040;2022-12-01T02:02:21;4.10;99.90
12130;DHT22;6128;59.340;18.040;2022-12-01T02:04:54;4.10;99.90
12130;DHT22;6128;59.340;18.040;2022-12-01T02:07:22;4.10;99.90
12130;DHT22;6128;59.340;18.040;2022-12-01T02:09:50;4.20;99.90
12130;DHT22;6128;59.340;18.040;2022-12-01T02:12:33;4.20;99.90
12130;DHT22;6128;59.340;18.040;2022-12-01T02:15:17;4.20;99.90
12130;DHT22;6128;59.340;18.040;2022-12-01T02:17:55;4.30;99.90
12130;DHT22;6128;59.340;18.040;2022-12-01T02:23:58;4.30;99.90
12130;DHT22;6128;59.340;18.040;2022-12-01T02:26:38;4.30;99.90
12130;DHT22;6128;59.340;18.040;2022-12-01T02:29:35;4.30;99.90
12130;DHT22;6128;59.340;18.040;2022-12-01T02:32:13;4.20;99.90
12130;DHT22;6128;59.340;18.040;2022-12-01T02:34:45;4.20;99.90
12130;DHT22;6128;59.340;18.040;2022-12-01T02:37:22;4.20;99.90
12130;DHT22;6128;59.340;18.040;2022-12-01T02:39:56;4.20;99.90
12130;DHT22;6128;59.340;18.040;2022-12-01T02:42:32;4.20;99.90
12130;DHT22;6128;59.340;18.040;2022-12-01T02:45:26;4.20;99.90
12130;DHT22;6128;59.340;18.040;2022-12-01T02:47:58;4.10;99.90
12130;DHT22;6128;59.340;18.040;2022-12-01T02:50:28;4.10;99.90
12130;DHT22;6128;59.340;18.040;2022-12-01T02:52:56;4.10;99.90
12130;DHT22;6128;59.340;18.040;2022-12-01T02:55:24;4.10;99.90
12130;DHT22;6128;59.340;18.040;2022-12-01T02:57:51;4.20;99.90
12130;DHT22;6128;59.340;18.040;2022-12-01T03:00:19;4.20;99.90
12130;DHT22;6128;59.340;18.040;2022-12-01T03:03:06;4.20;99.90
12130;DHT22;6128;59.340;18.040;2022-12-01T03:05:47;4.10;99.90
12130;DHT22;6128;59.340;18.040;2022-12-01T03:08:25;4.10;99.90
12130;DHT22;6128;59.340;18.040;2022-12-01T03:10:54;4.10;99.90
12130;DHT22;6128;59.340;18.040;2022-12-01T03:13:37;4.10;99.90
12130;DHT22;6128;59.340;18.040;2022-12-01T03:16:09;4.10;99.90
12130;DHT22;6128;59.340;18.040;2022-12-01T03:18:44;4.20;99.90
12130;DHT22;6128;59.340;18.040;2022-12-01T03:21:19;4.20;99.90
12130;DHT22;6128;59.340;18.040;2022-12-01T03:23:58;4.20;99.90
12130;DHT22;6128;59.340;18.040;2022-12-01T03:26:28;4.20;99.90
12130;DHT22;6128;59.340;18.040;2022-12-01T03:29:01;4.20;99.90
12130;DHT22;6128;59.340;18.040;2022-12-01T03:31:31;4.20;99.90
12130;DHT22;6128;59.340;18.040;2022-12-01T03:34:04;4.20;99.90
12130;DHT22;6128;59.340;18.040;2022-12-01T03:36:38;4.10;99.90
12130;DHT22;6128;59.340;18.040;2022-12-01T03:39:10;4.10;99.90
12130;DHT22;6128;59.340;18.040;2022-12-01T03:41:42;4.10;99.90
12130;DHT22;6128;59.340;18.040;2022-12-01T03:44:15;4.10;99.90
12130;DHT22;6128;59.340;18.040;2022-12-01T03:46:47;4.10;99.90
12130;DHT22;6128;59.340;18.040;2022-12-01T03:49:18;4.20;99.90
12130;DHT22;6128;59.340;18.040;2022-12-01T03:51:49;4.20;99.90
12130;DHT22;6128;59.340;18.040;2022-12-01T03:54:28;4.20;99.90
12130;DHT22;6128;59.340;18.040;2022-12-01T03:57:04;4.20;99.90
12130;DHT22;6128;59.340;18.040;2022-12-01T03:59:33;4.20;99.90
12130;DHT22;6128;59.340;18.040;2022-12-01T04:02:02;4.30;99.90
12130;DHT22;6128;59.340;18.040;2022-12-01T04:04:32;4.30;99.90
12130;DHT22;6128;59.340;18.040;2022-12-01T04:07:00;4.30;99.90
12130;DHT22;6128;59.340;18.040;2022-12-01T04:09:28;4.30;99.90
12130;DHT22;6128;59.340;18.040;2022-12-01T04:11:55;4.40;99.90
12130;DHT22;6128;59.340;18.040;2022-12-01T04:14:39;4.30;99.90
12130;DHT22;6128;59.340;18.040;2022-12-01T04:17:06;4.30;99.90
12130;DHT22;6128;59.340;18.040;2022-12-01T04:19:35;4.30;99.90
12130;DHT22;6128;59.340;18.040;2022-12-01T04:22:02;4.30;99.90
12130;DHT22;6128;59.340;18.040;2022-12-01T04:24:37;4.30;99.90
12130;DHT22;6128;59.340;18.040;2022-12-01T04:27:08;4.30;99.90
12130;DHT22;6128;59.340;18.040;2022-12-01T04:29:35;4.30;99.90
12130;DHT22;6128;59.340;18.040;2022-12-01T04:32:03;4.30;99.90
12130;DHT22;6128;59.340;18.040;2022-12-01T04:34:32;4.30;99.90
12130;DHT22;6128;59.340;18.040;2022-12-01T04:37:03;4.30;99.90
12130;DHT22;6128;59.340;18.040;2022-12-01T04:39:31;4.30;99.90
12130;DHT22;6128;59.340;18.040;2022-12-01T04:41:58;4.20;99.90
12130;DHT22;6128;59.340;18.040;2022-12-01T04:44:25;4.20;99.90
12130;DHT22;6128;59.340;18.040;2022-12-01T04:46:52;4.20;99.90
12130;DHT22;6128;59.340;18.040;2022-12-01T04:49:21;4.20;99.90
12130;DHT22;6128;59.340;18.040;2022-12-01T04:51:51;4.20;99.90
12130;DHT22;6128;59.340;18.040;2022-12-01T04:54:21;4.20;99.90
12130;DHT22;6128;59.340;18.040;2022-12-01T04:56:48;4.20;99.90
12130;DHT22;6128;59.340;18.040;2022-12-01T04:59:16;4.10;99.90
12130;DHT22;6128;59.340;18.040;2022-12-01T05:01:43;4.10;99.90
12130;DHT22;6128;59.340;18.040;2022-12-01T05:04:14;4.10;99.90
12130;DHT22;6128;59.340;18.040;2022-12-01T05:06:42;4.00;99.90
12130;DHT22;6128;59.340;18.040;2022-12-01T05:09:12;4.10;99.90
12130;DHT22;6128;59.340;18.040;2022-12-01T05:11:42;4.10;99.90
12130;DHT22;6128;59.340;18.040;2022-12-01T05:14:09;4.10;99.90
12130;DHT22;6128;59.340;18.040;2022-12-01T05:16:36;4.10;99.90
12130;DHT22;6128;59.340;18.040;2022-12-01T05:19:04;4.20;99.90
12130;DHT22;6128;59.340;18.040;2022-12-01T05:21:50;4.20;99.90
12130;DHT22;6128;59.340;18.040;2022-12-01T05:24:20;4.20;99.90
12130;DHT22;6128;59.340;18.040;2022-12-01T05:26:49;4.10;99.90
12130;DHT22;6128;59.340;18.040;2022-12-01T05:29:16;4.10;99.90
12130;DHT22;6128;59.340;18.040;2022-12-01T05:31:44;4.10;99.90
12130;DHT22;6128;59.340;18.040;2022-12-01T05:34:12;4.10;99.90
12130;DHT22;6128;59.340;18.040;2022-12-01T05:36:39;4.20;99.90
12130;DHT22;6128;59.340;18.040;2022-12-01T05:39:08;4.20;99.90
12130;DHT22;6128;59.340;18.040;2022-12-01T05:41:36;4.20;99.90
12130;DHT22;6128;59.340;18.040;2022-12-01T05:44:04;4.20;99.90
12130;DHT22;6128;59.340;18.040;2022-12-01T05:46:31;4.30;99.90
12130;DHT22;6128;59.340;18.040;2022-12-01T05:48:58;4.30;99.90
12130;DHT22;6128;59.340;18.040;2022-12-01T05:51:26;4.30;99.90
12130;DHT22;6128;59.340;18.040;2022-12-01T05:53:58;4.30;99.90
12130;DHT22;6128;59.340;18.040;2022-12-01T05:56:25;4.30;99.90
12130;DHT22;6128;59.340;18.040;2022-12-01T05:58:53;4.20;99.90
12130;DHT22;6128;59.340;18.040;2022-12-01T06:01:22;4.20;99.90
12130;DHT22;6128;59.340;18.040;2022-12-01T06:03:51;4.20;99.90
12130;DHT22;6128;59.340;18.040;2022-12-01T06:06:18;4.20;99.90
12130;DHT22;6128;59.340;18.040;2022-12-01T06:08:46;4.20;99.90
12130;DHT22;6128;59.340;18.040;2022-12-01T06:11:13;4.20;99.90
12130;DHT22;6128;59.340;18.040;2022-12-01T06:13:41;4.10;99.90
12130;DHT22;6128;59.340;18.040;2022-12-01T06:16:08;4.20;99.90
12130;DHT22;6128;59.340;18.040;2022-12-01T06:18:38;4.20;99.90
12130;DHT22;6128;59.340;18.040;2022-12-01T06:21:07;4.20;99.90
12130;DHT22;6128;59.340;18.040;2022-12-01T06:23:35;4.20;99.90
12130;DHT22;6128;59.340;18.040;2022-12-01T06:26:03;4.20;99.90
12130;DHT22;6128;59.340;18.040;2022-12-01T06:28:31;4.10;99.90
12130;DHT22;6128;59.340;18.040;2022-12-01T06:30:58;4.10;99.90
12130;DHT22;6128;59.340;18.040;2022-12-01T06:33:28;4.10;99.90
12130;DHT22;6128;59.340;18.040;2022-12-01T06:36:02;4.10;99.90
12130;DHT22;6128;59.340;18.040;2022-12-01T06:38:31;4.10;99.90
12130;DHT22;6128;59.340;18.040;2022-12-01T06:40:59;4.10;99.90
12130;DHT22;6128;59.340;18.040;2022-12-01T06:43:28;4.00;99.90
12130;DHT22;6128;59.340;18.040;2022-12-01T06:45:57;4.10;99.90
12130;DHT22;6128;59.340;18.040;2022-12-01T06:48:24;4.10;99.90
12130;DHT22;6128;59.340;18.040;2022-12-01T06:50:56;4.10;99.90
12130;DHT22;6128;59.340;18.040;2022-12-01T06:53:25;4.10;99.90
12130;DHT22;6128;59.340;18.040;2022-12-01T06:55:53;4.10;99.90
12130;DHT22;6128;59.340;18.040;2022-12-01T06:58:20;4.10;99.90
12130;DHT22;6128;59.340;18.040;2022-12-01T07:00:47;4.10;99.90
12130;DHT22;6128;59.340;18.040;2022-12-01T07:03:15;4.10;99.90
12130;DHT22;6128;59.340;18.040;2022-12-01T07:05:42;4.10;99.90
12130;DHT22;6128;59.340;18.040;2022-12-01T07:08:10;4.10;99.90
12130;DHT22;6128;59.340;18.040;2022-12-01T07:10:39;4.10;99.90
12130;DHT22;6128;59.340;18.040;2022-12-01T07:13:06;4.10;99.90
12130;DHT22;6128;59.340;18.040;2022-12-01T07:15:33;4.20;99.90
12130;DHT22;6128;59.340;18.040;2022-12-01T07:18:01;4.20;99.90
12130;DHT22;6128;59.340;18.040;2022-12-01T07:20:28;4.20;99.90
12130;DHT22;6128;59.340;18.040;2022-12-01T07:22:55;4.20;99.90
12130;DHT22;6128;59.340;18.040;2022-12-01T07:25:25;4.20;99.90
12130;DHT22;6128;59.340;18.040;2022-12-01T07:27:54;4.20;99.90
12130;DHT22;6128;59.340;18.040;2022-12-01T07:30:24;4.30;99.90
12130;DHT22;6128;59.340;18.040;2022-12-01T07:32:51;4.30;99.90
12130;DHT22;6128;59.340;18.040;2022-12-01T07:35:19;4.30;99.90
12130;DHT22;6128;59.340;18.040;2022-12-01T07:37:47;4.30;99.90
12130;DHT22;6128;59.340;18.040;2022-12-01T07:40:14;4.20;99.90
12130;DHT22;6128;59.340;18.040;2022-12-01T07:42:42;4.30;99.90
12130;DHT22;6128;59.340;18.040;2022-12-01T07:45:12;4.30;99.90
12130;DHT22;6128;59.340;18.040;2022-12-01T07:47:42;4.30;99.90
12130;DHT22;6128;59.340;18.040;2022-12-01T07:50:10;4.30;99.90
12130;DHT22;6128;59.340;18.040;2022-12-01T07:52:38;4.30;99.90
12130;DHT22;6128;59.340;18.040;2022-12-01T07:55:06;4.30;99.90
12130;DHT22;6128;59.340;18.040;2022-12-01T07:57:38;4.30;99.90
12130;DHT22;6128;59.340;18.040;2022-12-01T08:00:06;4.30;99.90
12130;DHT22;6128;59.340;18.040;2022-12-01T08:02:37;4.40;99.90
12130;DHT22;6128;59.340;18.040;2022-12-01T08:05:04;4.40;99.90
12130;DHT22;6128;59.340;18.040;2022-12-01T08:07:32;4.40;99.90
12130;DHT22;6128;59.340;18.040;2022-12-01T08:09:59;4.50;99.90
12130;DHT22;6128;59.340;18.040;2022-12-01T08:12:27;4.50;99.90
12130;DHT22;6128;59.340;18.040;2022-12-01T08:14:54;4.50;99.90
12130;DHT22;6128;59.340;18.040;2022-12-01T08:17:21;4.60;99.90
12130;DHT22;6128;59.340;18.040;2022-12-01T08:19:53;4.60;99.90
12130;DHT22;6128;59.340;18.040;2022-12-01T08:22:20;4.60;99.90
12130;DHT22;6128;59.340;18.040;2022-12-01T08:24:49;4.70;99.90
12130;DHT22;6128;59.340;18.040;2022-12-01T08:27:19;4.60;99.90
12130;DHT22;6128;59.340;18.040;2022-12-01T08:29:46;4.70;99.90
12130;DHT22;6128;59.340;18.040;2022-12-01T08:32:15;4.70;99.90
12130;DHT22;6128;59.340;18.040;2022-12-01T08:34:42;4.70;99.90
12130;DHT22;6128;59.340;18.040;2022-12-01T08:37:11;4.60;99.90
12130;DHT22;6128;59.340;18.040;2022-12-01T08:39:38;4.60;99.90
12130;DHT22;6128;59.340;18.040;2022-12-01T08:42:05;4.50;99.90
12130;DHT22;6128;59.340;18.040;2022-12-01T08:44:32;4.40;99.90
12130;DHT22;6128;59.340;18.040;2022-12-01T08:47:00;4.40;99.90
12130;DHT22;6128;59.340;18.040;2022-12-01T08:49:27;4.40;99.90
12130;DHT22;6128;59.340;18.040;2022-12-01T08:51:54;4.40;99.90
12130;DHT22;6128;59.340;18.040;2022-12-01T08:54:23;4.50;99.90
12130;DHT22;6128;59.340;18.040;2022-12-01T08:56:50;4.50;99.90
12130;DHT22;6128;59.340;18.040;2022-12-01T08:59:17;4.50;99.90
12130;DHT22;6128;59.340;18.040;2022-12-01T09:01:45;4.50;99.90
12130;DHT22;6128;59.340;18.040;2022-12-01T09:04:18;4.50;99.90
12130;DHT22;6128;59.340;18.040;2022-12-01T09:06:47;4.50;99.90
12130;DHT22;6128;59.340;18.040;2022-12-01T09:09:16;4.50;99.90
12130;DHT22;6128;59.340;18.040;2022-12-01T09:11:46;4.50;99.90
12130;DHT22;6128;59.340;18.040;2022-12-01T09:14:15;4.50;99.90
12130;DHT22;6128;59.340;18.040;2022-12-01T09:16:44;4.60;99.90
12130;DHT22;6128;59.340;18.040;2022-12-01T09:19:12;4.60;99.90
12130;DHT22;6128;59.340;18.040;2022-12-01T09:21:40;4.60;99.90
12130;DHT22;6128;59.340;18.040;2022-12-01T09:24:10;4.60;99.90
12130;DHT22;6128;59.340;18.040;2022-12-01T09:26:38;4.60;99.90
12130;DHT22;6128;59.340;18.040;2022-12-01T09:29:09;4.60;99.90
12130;DHT22;6128;59.340;18.040;2022-12-01T09:31:37;4.60;99.90
12130;DHT22;6128;59.340;18.040;2022-12-01T09:34:09;4.70;99.90
12130;DHT22;6128;59.340;18.040;2022-12-01T09:36:40;4.70;99.90
12130;DHT22;6128;59.340;18.040;2022-12-01T09:39:10;4.80;99.90
12130;DHT22;6128;59.340;18.040;2022-12-01T09:41:41;4.80;99.90
12130;DHT22;6128;59.340;18.040;2022-12-01T09:44:14;4.80;99.90
12130;DHT22;6128;59.340;18.040;2022-12-01T09:46:48;4.80;99.90
12130;DHT22;6128;59.340;18.040;2022-12-01T09:49:18;4.80;99.90
12130;DHT22;6128;59.340;18.040;2022-12-01T09:51:47;4.70;99.90
12130;DHT22;6128;59.340;18.040;2022-12-01T09:54:15;4.70;99.90
12130;DHT22;6128;59.340;18.040;2022-12-01T09:56:45;4.80;99.90
12130;DHT22;6128;59.340;18.040;2022-12-01T09:59:18;4.80;99.90
12130;DHT22;6128;59.340;18.040;2022-12-01T10:01:50;4.80;99.90
12130;DHT22;6128;59.340;18.040;2022-12-01T10:04:24;4.80;99.90
12130;DHT22;6128;59.340;18.040;2022-12-01T10:06:54;4.80;99.90
12130;DHT22;6128;59.340;18.040;2022-12-01T10:09:28;4.70;99.90
12130;DHT22;6128;59.340;18.040;2022-12-01T10:12:03;4.80;99.90
12130;DHT22;6128;59.340;18.040;2022-12-01T10:14:35;4.80;99.90
12130;DHT22;6128;59.340;18.040;2022-12-01T10:17:08;4.90;99.90
12130;DHT22;6128;59.340;18.040;2022-12-01T10:19:43;4.90;99.90
12130;DHT22;6128;59.340;18.040;2022-12-01T10:22:27;4.80;99.90
12130;DHT22;6128;59.340;18.040;2022-12-01T10:25:04;4.90;99.90
12130;DHT22;6128;59.340;18.040;2022-12-01T10:27:43;4.90;99.90
12130;DHT22;6128;59.340;18.040;2022-12-01T10:30:16;4.90;99.90
12130;DHT22;6128;59.340;18.040;2022-12-01T10:32:50;4.90;99.90
12130;DHT22;6128;59.340;18.040;2022-12-01T10:35:19;4.90;99.90
12130;DHT22;6128;59.340;18.040;2022-12-01T10:37:50;5.00;99.90
12130;DHT22;6128;59.340;18.040;2022-12-01T10:40:20;5.00;99.90
12130;DHT22;6128;59.340;18.040;2022-12-01T10:42:48;5.10;99.90
12130;DHT22;6128;59.340;18.040;2022-12-01T10:45:22;5.00;99.90
12130;DHT22;6128;59.340;18.040;2022-12-01T10:48:12;5.00;99.90
12130;DHT22;6128;59.340;18.040;2022-12-01T10:50:42;5.00;99.90
12130;DHT22;6128;59.340;18.040;2022-12-01T10:53:27;4.80;99.90
12130;DHT22;6128;59.340;18.040;2022-12-01T10:56:07;4.70;99.90
12130;DHT22;6128;59.340;18.040;2022-12-01T10:58:42;4.70;99.90
12130;DHT22;6128;59.340;18.040;2022-12-01T11:01:19;4.60;99.90
12130;DHT22;6128;59.340;18.040;2022-12-01T11:03:53;4.50;99.90
12130;DHT22;6128;59.340;18.040;2022-12-01T11:06:24;4.50;99.90
12130;DHT22;6128;59.340;18.040;2022-12-01T11:08:55;4.40;99.90
12130;DHT22;6128;59.340;18.040;2022-12-01T11:11:27;4.40;99.90
12130;DHT22;6128;59.340;18.040;2022-12-01T11:13:55;4.40;99.90
12130;DHT22;6128;59.340;18.040;2022-12-01T11:16:50;4.40;99.90
12130;DHT22;6128;59.340;18.040;2022-12-01T11:19:28;4.40;99.90
12130;DHT22;6128;59.340;18.040;2022-12-01T11:21:57;4.30;99.90
12130;DHT22;6128;59.340;18.040;2022-12-01T11:24:32;4.30;99.90
12130;DHT22;6128;59.340;18.040;2022-12-01T11:27:13;4.30;99.90
12130;DHT22;6128;59.340;18.040;2022-12-01T11:29:41;4.30;99.90
12130;DHT22;6128;59.340;18.040;2022-12-01T11:32:16;4.30;99.90
12130;DHT22;6128;59.340;18.040;2022-12-01T11:34:49;4.40;99.90
12130;DHT22;6128;59.340;18.040;2022-12-01T11:37:21;4.40;99.90
12130;DHT22;6128;59.340;18.040;2022-12-01T11:39:49;4.50;99.90
12130;DHT22;6128;59.340;18.040;2022-12-01T11:42:22;4.60;99.90
12130;DHT22;6128;59.340;18.040;2022-12-01T11:44:54;4.70;99.90
12130;DHT22;6128;59.340;18.040;2022-12-01T11:47:24;4.70;99.90
12130;DHT22;6128;59.340;18.040;2022-12-01T11:49:54;4.70;99.90
12130;DHT22;6128;59.340;18.040;2022-12-01T11:52:25;4.80;99.90
12130;DHT22;6128;59.340;18.040;2022-12-01T11:54:58;4.80;99.90
12130;DHT22;6128;59.340;18.040;2022-12-01T11:57:29;4.80;99.90
12130;DHT22;6128;59.340;18.040;2022-12-01T11:59:56;4.90;99.90
12130;DHT22;6128;59.340;18.040;2022-12-01T12:02:33;4.80;99.90
12130;DHT22;6128;59.340;18.040;2022-12-01T12:05:25;4.80;99.90
12130;DHT22;6128;59.340;18.040;2022-12-01T12:08:02;4.80;99.90
12130;DHT22;6128;59.340;18.040;2022-12-01T12:10:39;4.80;99.90
12130;DHT22;6128;59.340;18.040;2022-12-01T12:13:27;4.80;99.90
12130;DHT22;6128;59.340;18.040;2022-12-01T12:16:01;4.80;99.90
12130;DHT22;6128;59.340;18.040;2022-12-01T12:18:43;4.80;99.90
12130;DHT22;6128;59.340;18.040;2022-12-01T12:21:20;4.80;99.90
12130;DHT22;6128;59.340;18.040;2022-12-01T12:24:10;4.80;99.90
12130;DHT22;6128;59.340;18.040;2022-12-01T12:26:48;4.70;99.90
12130;DHT22;6128;59.340;18.040;2022-12-01T12:29:31;4.60;99.90
12130;DHT22;6128;59.340;18.040;2022-12-01T12:32:12;4.60;99.90
12130;DHT22;6128;59.340;18.040;2022-12-01T12:34:49;4.60;99.90
12130;DHT22;6128;59.340;18.040;2022-12-01T12:37:21;4.60;99.90
12130;DHT22;6128;59.340;18.040;2022-12-01T12:40:06;4.60;99.90
12130;DHT22;6128;59.340;18.040;2022-12-01T12:42:45;4.70;99.90
12130;DHT22;6128;59.340;18.040;2022-12-01T12:45:19;4.70;99.90
12130;DHT22;6128;59.340;18.040;2022-12-01T12:48:07;4.70;99.90
12130;DHT22;6128;59.340;18.040;2022-12-01T12:50:44;4.70;99.90
12130;DHT22;6128;59.340;18.040;2022-12-01T12:53:19;4.70;99.90
12130;DHT22;6128;59.340;18.040;2022-12-01T12:55:49;4.70;99.90
12130;DHT22;6128;59.340;18.040;2022-12-01T12:58:20;4.80;99.90
12130;DHT22;6128;59.340;18.040;2022-12-01T13:00:52;4.80;99.90
12130;DHT22;6128;59.340;18.040;2022-12-01T13:03:26;4.70;99.90
12130;DHT22;6128;59.340;18.040;2022-12-01T13:06:01;4.70;99.90
12130;DHT22;6128;59.340;18.040;2022-12-01T13:08:34;4.70;99.90
12130;DHT22;6128;59.340;18.040;2022-12-01T13:11:09;4.60;99.90
12130;DHT22;6128;59.340;18.040;2022-12-01T13:13:45;4.60;99.90
12130;DHT22;6128;59.340;18.040;2022-12-01T13:16:17;4.50;99.90
12130;DHT22;6128;59.340;18.040;2022-12-01T13:18:48;4.50;99.90
12130;DHT22;6128;59.340;18.040;2022-12-01T13:21:19;4.50;99.90
12130;DHT22;6128;59.340;18.040;2022-12-01T13:23:48;4.50;99.90
12130;DHT22;6128;59.340;18.040;2022-12-01T13:26:18;4.60;99.90
12130;DHT22;6128;59.340;18.040;2022-12-01T13:28:49;4.60;99.90
12130;DHT22;6128;59.340;18.040;2022-12-01T13:31:18;4.60;99.90
12130;DHT22;6128;59.340;18.040;2022-12-01T13:33:54;4.60;99.90
12130;DHT22;6128;59.340;18.040;2022-12-01T13:36:24;4.60;99.90
12130;DHT22;6128;59.340;18.040;2022-12-01T13:38:56;4.50;99.90
12130;DHT22;6128;59.340;18.040;2022-12-01T13:41:27;4.40;99.90
12130;DHT22;6128;59.340;18.040;2022-12-01T13:44:00;4.50;99.90
12130;DHT22;6128;59.340;18.040;2022-12-01T13:46:31;4.50;99.90
12130;DHT22;6128;59.340;18.040;2022-12-01T13:49:00;4.50;99.90
12130;DHT22;6128;59.340;18.040;2022-12-01T13:54:35;4.50;99.90
12130;DHT22;6128;59.340;18.040;2022-12-01T13:57:04;4.50;99.90
12130;DHT22;6128;59.340;18.040;2022-12-01T13:59:43;4.40;99.90
12130;DHT22;6128;59.340;18.040;2022-12-01T14:02:28;4.40;99.90
12130;DHT22;6128;59.340;18.040;2022-12-01T14:05:43;4.30;99.90
12130;DHT22;6128;59.340;18.040;2022-12-01T14:08:15;4.30;99.90
12130;DHT22;6128;59.340;18.040;2022-12-01T14:10:52;4.40;99.90
12130;DHT22;6128;59.340;18.040;2022-12-01T14:13:21;4.40;99.90
12130;DHT22;6128;59.340;18.040;2022-12-01T14:15:54;4.40;99.90
12130;DHT22;6128;59.340;18.040;2022-12-01T14:18:40;4.40;99.90
12130;DHT22;6128;59.340;18.040;2022-12-01T14:21:10;4.40;99.90
12130;DHT22;6128;59.340;18.040;2022-12-01T14:23:59;4.30;99.90
12130;DHT22;6128;59.340;18.040;2022-12-01T14:26:28;4.30;99.90
12130;DHT22;6128;59.340;18.040;2022-12-01T14:32:22;4.20;99.90
12130;DHT22;6128;59.340;18.040;2022-12-01T14:34:54;4.10;99.90
12130;DHT22;6128;59.340;18.040;2022-12-01T14:37:26;4.10;99.90
12130;DHT22;6128;59.340;18.040;2022-12-01T14:40:05;4.10;99.90
12130;DHT22;6128;59.340;18.040;2022-12-01T14:42:36;4.10;99.90
12130;DHT22;6128;59.340;18.040;2022-12-01T14:45:23;4.00;99.90
12130;DHT22;6128;59.340;18.040;2022-12-01T14:47:58;4.00;99.90
12130;DHT22;6128;59.340;18.040;2022-12-01T14:50:33;4.00;99.90
12130;DHT22;6128;59.340;18.040;2022-12-01T14:53:07;4.00;99.90
12130;DHT22;6128;59.340;18.040;2022-12-01T14:55:42;4.10;99.90
12130;DHT22;6128;59.340;18.040;2022-12-01T14:58:14;4.10;99.90
12130;DHT22;6128;59.340;18.040;2022-12-01T15:00:54;4.20;99.90
12130;DHT22;6128;59.340;18.040;2022-12-01T15:03:23;4.20;99.90
12130;DHT22;6128;59.340;18.040;2022-12-01T15:05:50;4.20;99.90
12130;DHT22;6128;59.340;18.040;2022-12-01T15:08:20;4.20;99.90
12130;DHT22;6128;59.340;18.040;2022-12-01T15:10:52;4.20;99.90
12130;DHT22;6128;59.340;18.040;2022-12-01T15:13:22;4.30;99.90
12130;DHT22;6128;59.340;18.040;2022-12-01T15:15:50;4.30;99.90
12130;DHT22;6128;59.340;18.040;2022-12-01T15:18:22;4.40;99.90
12130;DHT22;6128;59.340;18.040;2022-12-01T15:20:50;4.30;99.90
12130;DHT22;6128;59.340;18.040;2022-12-01T15:23:22;4.20;99.90
12130;DHT22;6128;59.340;18.040;2022-12-01T15:25:50;4.30;99.90
12130;DHT22;6128;59.340;18.040;2022-12-01T15:28:19;4.30;99.90
12130;DHT22;6128;59.340;18.040;2022-12-01T15:30:49;4.30;99.90
12130;DHT22;6128;59.340;18.040;2022-12-01T15:33:20;4.20;99.90
12130;DHT22;6128;59.340;18.040;2022-12-01T15:35:48;4.20;99.90
12130;DHT22;6128;59.340;18.040;2022-12-01T15:38:22;4.20;99.90
12130;DHT22;6128;59.340;18.040;2022-12-01T15:40:52;4.20;99.90
12130;DHT22;6128;59.340;18.040;2022-12-01T15:43:37;4.20;99.90
12130;DHT22;6128;59.340;18.040;2022-12-01T15:46:15;4.20;99.90
12130;DHT22;6128;59.340;18.040;2022-12-01T15:49:14;4.20;99.90
12130;DHT22;6128;59.340;18.040;2022-12-01T15:51:59;4.30;99.90
12130;DHT22;6128;59.340;18.040;2022-12-01T15:54:48;4.30;99.90
12130;DHT22;6128;59.340;18.040;2022-12-01T15:57:36;4.30;99.90
12130;DHT22;6128;59.340;18.040;2022-12-01T16:00:19;4.30;99.90
12130;DHT22;6128;59.340;18.040;2022-12-01T16:03:01;4.30;99.90
12130;DHT22;6128;59.340;18.040;2022-12-01T16:05:44;4.30;99.90
12130;DHT22;6128;59.340;18.040;2022-12-01T16:08:28;4.30;99.90
12130;DHT22;6128;59.340;18.040;2022-12-01T16:11:09;4.20;99.90
12130;DHT22;6128;59.340;18.040;2022-12-01T16:13:46;4.20;99.90
12130;DHT22;6128;59.340;18.040;2022-12-01T16:16:36;4.20;99.90
12130;DHT22;6128;59.340;18.040;2022-12-01T16:19:28;4.20;99.90
12130;DHT22;6128;59.340;18.040;2022-12-01T16:22:03;4.20;99.90
12130;DHT22;6128;59.340;18.040;2022-12-01T16:24:46;4.20;99.90